createdAt,value
2022-10-12T00:01:46.536Z,10.43
2022-10-12T00:04:13.265Z,10.44
2022-10-12T00:06:39.945Z,10.52
2022-10-12T00:09:06.684Z,10.58
2022-10-12T00:11:33.466Z,10.53
2022-10-12T00:14:01.333Z,10.51
2022-10-12T00:16:31.531Z,10.48
2022-10-12T00:18:59.094Z,10.47
2022-10-12T00:21:27.056Z,10.50
2022-10-12T00:24:00.042Z,10.57
2022-10-12T00:26:27.656Z,10.53
2022-10-12T00:28:57.477Z,10.45
2022-10-12T00:31:24.687Z,10.52
2022-10-12T00:33:51.583Z,10.51
2022-10-12T00:36:26.314Z,10.47
2022-10-12T00:38:54.844Z,10.52
2022-10-12T00:41:24.743Z,10.58
2022-10-12T00:43:57.650Z,10.48
2022-10-12T00:46:42.524Z,10.46
2022-10-12T00:49:12.812Z,10.37
2022-10-12T00:51:44.312Z,10.40
2022-10-12T00:54:14.737Z,10.45
2022-10-12T00:56:42.534Z,10.47
2022-10-12T00:59:13.152Z,10.51
2022-10-12T01:01:39.974Z,10.54
2022-10-12T01:04:07.056Z,10.48
2022-10-12T01:06:34.653Z,10.48
2022-10-12T01:09:01.724Z,10.48
2022-10-12T01:11:28.464Z,10.46
2022-10-12T01:13:55.133Z,10.50
2022-10-12T01:16:40.737Z,10.53
2022-10-12T01:19:25.975Z,10.59
2022-10-12T01:22:00.072Z,10.56
2022-10-12T01:24:35.935Z,10.59
2022-10-12T01:27:44.286Z,10.63
2022-10-12T01:30:17.949Z,10.65
2022-10-12T01:33:06.536Z,10.61
2022-10-12T01:35:44.079Z,10.56
2022-10-12T01:38:10.754Z,10.51
2022-10-12T01:40:44.333Z,10.42
2022-10-12T01:43:11.014Z,10.40
2022-10-12T01:45:37.881Z,10.39
2022-10-12T01:48:05.213Z,10.33
2022-10-12T01:50:47.973Z,10.12
2022-10-12T01:53:23.575Z,10.24
2022-10-12T01:56:05.533Z,10.16
2022-10-12T01:58:35.187Z,10.14
2022-10-12T02:01:26.669Z,10.17
2022-10-12T02:04:36.976Z,9.89
2022-10-12T02:07:13.936Z,9.90
2022-10-12T02:09:41.549Z,9.94
2022-10-12T02:12:16.393Z,9.89
2022-10-12T02:15:03.508Z,9.86
2022-10-12T02:17:30.603Z,9.86
2022-10-12T02:20:00.002Z,9.79
2022-10-12T02:22:34.489Z,9.78
2022-10-12T02:25:06.625Z,9.65
2022-10-12T02:27:35.410Z,9.72
2022-10-12T02:30:02.894Z,9.58
2022-10-12T02:33:18.086Z,9.65
2022-10-12T02:36:16.393Z,9.79
2022-10-12T02:38:53.647Z,9.73
2022-10-12T02:41:35.897Z,9.64
2022-10-12T02:44:04.487Z,9.64
2022-10-12T02:46:32.534Z,9.71
2022-10-12T02:49:00.273Z,9.81
2022-10-12T02:51:29.010Z,9.88
2022-10-12T02:53:56.643Z,9.90
2022-10-12T02:56:23.955Z,9.89
2022-10-12T02:58:50.711Z,9.97
2022-10-12T03:01:17.906Z,10.04
2022-10-12T03:03:45.409Z,10.13
2022-10-12T03:06:12.716Z,10.15
2022-10-12T03:08:39.945Z,10.09
2022-10-12T03:11:08.558Z,10.13
2022-10-12T03:13:35.555Z,10.02
2022-10-12T03:16:06.924Z,10.03
2022-10-12T03:18:34.636Z,10.11
2022-10-12T03:21:01.620Z,10.09
2022-10-12T03:23:28.305Z,10.15
2022-10-12T03:25:55.104Z,10.22
2022-10-12T03:28:22.018Z,10.22
2022-10-12T03:30:48.785Z,10.22
2022-10-12T03:33:15.542Z,10.20
2022-10-12T03:35:45.625Z,10.19
2022-10-12T03:38:13.444Z,10.24
2022-10-12T03:40:40.311Z,10.25
2022-10-12T03:43:07.474Z,10.17
2022-10-12T03:45:34.356Z,10.19
2022-10-12T03:48:04.938Z,10.20
2022-10-12T03:50:34.902Z,10.20
2022-10-12T03:53:03.179Z,10.20
2022-10-12T03:55:30.025Z,10.24
2022-10-12T03:57:56.763Z,10.19
2022-10-12T04:00:23.742Z,10.20
2022-10-12T04:02:50.486Z,10.05
2022-10-12T04:05:17.527Z,10.01
2022-10-12T04:07:44.176Z,10.12
2022-10-12T04:10:10.896Z,9.97
2022-10-12T04:12:37.654Z,9.93
2022-10-12T04:15:04.865Z,9.96
2022-10-12T04:17:31.594Z,10.06
2022-10-12T04:19:58.157Z,10.07
2022-10-12T04:22:24.915Z,10.01
2022-10-12T04:24:51.943Z,10.06
2022-10-12T04:27:18.627Z,10.13
2022-10-12T04:29:45.372Z,10.11
2022-10-12T04:32:12.779Z,10.00
2022-10-12T04:34:40.016Z,9.93
2022-10-12T04:37:06.800Z,9.94
2022-10-12T04:39:33.542Z,9.96
2022-10-12T04:42:00.309Z,9.95
2022-10-12T04:44:31.968Z,9.90
2022-10-12T04:46:59.754Z,9.78
2022-10-12T04:49:26.502Z,9.80
2022-10-12T04:51:53.175Z,9.87
2022-10-12T04:54:19.835Z,9.82
2022-10-12T04:56:48.167Z,9.68
2022-10-12T04:59:15.208Z,9.70
2022-10-12T05:01:42.052Z,9.61
2022-10-12T05:04:08.932Z,9.66
2022-10-12T05:06:35.654Z,9.64
2022-10-12T05:09:02.442Z,9.59
2022-10-12T05:11:29.242Z,9.61
2022-10-12T05:13:56.026Z,9.59
2022-10-12T05:16:22.784Z,9.68
2022-10-12T05:18:49.531Z,9.71
2022-10-12T05:21:16.373Z,9.75
2022-10-12T05:23:43.224Z,9.78
2022-10-12T05:26:09.965Z,9.82
2022-10-12T05:28:40.819Z,9.77
2022-10-12T05:31:08.003Z,9.71
2022-10-12T05:33:34.804Z,9.73
2022-10-12T05:36:01.543Z,9.82
2022-10-12T05:38:28.186Z,9.84
2022-10-12T05:40:59.371Z,9.79
2022-10-12T05:43:26.906Z,9.81
2022-10-12T05:45:53.625Z,9.70
2022-10-12T05:48:20.364Z,9.66
2022-10-12T05:50:47.097Z,9.68
2022-10-12T05:53:13.881Z,9.67
2022-10-12T05:55:40.712Z,9.73
2022-10-12T05:58:07.402Z,9.79
2022-10-12T06:00:34.132Z,9.86
2022-10-12T06:03:00.812Z,9.89
2022-10-12T06:05:27.552Z,9.96
2022-10-12T06:07:54.322Z,9.96
2022-10-12T06:10:21.004Z,10.01
2022-10-12T06:12:47.693Z,10.11
2022-10-12T06:15:14.405Z,10.17
2022-10-12T06:17:41.124Z,10.19
2022-10-12T06:20:08.204Z,10.15
2022-10-12T06:22:35.418Z,10.18
2022-10-12T06:25:02.443Z,10.23
2022-10-12T06:27:29.236Z,10.29
2022-10-12T06:29:56.065Z,10.35
2022-10-12T06:32:22.766Z,10.42
2022-10-12T06:34:49.542Z,10.50
2022-10-12T06:37:44.466Z,10.54
2022-10-12T06:40:03.346Z,10.62
2022-10-12T06:42:30.092Z,10.64
2022-10-12T06:44:56.912Z,10.67
2022-10-12T06:47:23.523Z,10.71
2022-10-12T06:49:50.229Z,10.84
2022-10-12T06:52:27.958Z,10.91
2022-10-12T06:54:54.635Z,10.99
2022-10-12T06:57:21.554Z,11.06
2022-10-12T06:59:48.515Z,11.05
2022-10-12T07:02:15.279Z,11.08
2022-10-12T07:04:42.035Z,10.99
2022-10-12T07:07:08.834Z,11.00
2022-10-12T07:09:36.482Z,11.06
2022-10-12T07:12:03.212Z,11.21
2022-10-12T07:14:29.846Z,11.09
2022-10-12T07:16:56.571Z,11.21
2022-10-12T07:19:23.284Z,11.34
2022-10-12T07:21:49.983Z,11.39
2022-10-12T07:24:16.675Z,11.39
2022-10-12T07:26:43.384Z,11.43
2022-10-12T07:29:10.084Z,11.54
2022-10-12T07:31:37.689Z,11.68
2022-10-12T07:34:04.494Z,11.67
2022-10-12T07:36:54.362Z,11.72
2022-10-12T07:39:17.967Z,11.71
2022-10-12T07:41:44.852Z,11.73
2022-10-12T07:44:12.044Z,11.74
2022-10-12T07:46:38.785Z,11.90
2022-10-12T07:49:05.584Z,12.03
2022-10-12T07:51:32.364Z,12.27
2022-10-12T07:54:00.344Z,12.54
2022-10-12T07:56:27.222Z,12.62
2022-10-12T07:58:55.483Z,12.81
2022-10-12T08:01:25.067Z,12.89
2022-10-12T08:03:53.825Z,13.05
2022-10-12T08:06:24.841Z,13.27
2022-10-12T08:08:51.713Z,13.34
2022-10-12T08:11:19.303Z,13.22
2022-10-12T08:13:46.910Z,13.52
2022-10-12T08:16:16.446Z,13.81
2022-10-12T08:18:43.504Z,13.89
2022-10-12T08:21:12.201Z,14.01
2022-10-12T08:23:39.124Z,14.19
2022-10-12T08:26:06.776Z,14.11
2022-10-12T08:28:34.394Z,13.99
2022-10-12T08:31:01.154Z,13.96
2022-10-12T08:33:30.135Z,13.82
2022-10-12T08:35:56.904Z,13.69
2022-10-12T08:38:23.646Z,13.50
2022-10-12T08:40:56.872Z,13.44
2022-10-12T08:44:01.067Z,13.44
2022-10-12T08:46:28.830Z,13.54
2022-10-12T08:49:05.453Z,13.52
2022-10-12T08:51:45.292Z,13.41
2022-10-12T08:54:14.056Z,13.52
2022-10-12T08:56:41.529Z,13.50
2022-10-12T08:59:18.284Z,13.53
2022-10-12T09:02:26.234Z,13.52
2022-10-12T09:04:59.959Z,13.51
2022-10-12T09:07:30.733Z,13.57
2022-10-12T09:10:35.270Z,13.62
2022-10-12T09:13:04.132Z,13.60
2022-10-12T09:15:38.583Z,13.73
2022-10-12T09:18:19.092Z,13.69
2022-10-12T09:20:51.055Z,13.63
2022-10-12T09:23:25.383Z,13.60
2022-10-12T09:26:00.784Z,13.55
2022-10-12T09:28:31.976Z,13.64
2022-10-12T09:31:26.963Z,13.64
2022-10-12T09:34:06.432Z,13.60
2022-10-12T09:36:36.166Z,13.69
2022-10-12T09:39:05.751Z,13.76
2022-10-12T09:41:42.047Z,13.73
2022-10-12T09:44:15.922Z,13.78
2022-10-12T09:46:55.941Z,13.82
2022-10-12T09:49:22.795Z,13.91
2022-10-12T09:51:59.886Z,13.91
2022-10-12T09:54:27.784Z,13.99
2022-10-12T09:56:55.415Z,14.04
2022-10-12T09:59:33.373Z,14.12
2022-10-12T10:02:16.311Z,13.96
2022-10-12T10:04:44.505Z,14.40
2022-10-12T10:07:30.934Z,15.13
2022-10-12T10:10:13.897Z,15.63
2022-10-12T10:12:54.802Z,15.81
2022-10-12T10:15:24.912Z,15.35
2022-10-12T10:18:03.901Z,15.35
2022-10-12T10:20:33.222Z,15.58
2022-10-12T10:23:00.562Z,16.02
2022-10-12T10:25:27.440Z,16.35
2022-10-12T10:28:30.260Z,17.16
2022-10-12T10:31:22.701Z,16.54
2022-10-12T10:34:13.181Z,16.83
2022-10-12T10:37:00.062Z,17.27
2022-10-12T10:39:30.621Z,16.54
2022-10-12T10:42:09.861Z,16.90
2022-10-12T10:44:37.313Z,16.31
2022-10-12T10:47:13.541Z,16.29
2022-10-12T10:49:50.224Z,16.26
2022-10-12T10:52:36.701Z,16.54
2022-10-12T10:55:22.512Z,17.52
2022-10-12T10:58:01.382Z,17.13
2022-10-12T11:00:44.516Z,17.28
2022-10-12T11:03:17.476Z,18.04
2022-10-12T11:05:52.604Z,17.95
2022-10-12T11:08:26.143Z,17.71
2022-10-12T11:11:02.723Z,17.68
2022-10-12T11:13:45.659Z,18.24
2022-10-12T11:16:34.641Z,18.56
2022-10-12T11:19:33.563Z,18.13
2022-10-12T11:22:12.880Z,18.38
2022-10-12T11:24:50.361Z,18.93
2022-10-12T11:27:39.332Z,19.00
2022-10-12T11:30:20.599Z,18.19
2022-10-12T11:33:09.470Z,17.70
2022-10-12T11:35:38.631Z,17.59
2022-10-12T11:38:15.430Z,18.14
2022-10-12T11:41:14.228Z,18.27
2022-10-12T11:44:30.349Z,18.28
2022-10-12T11:47:08.901Z,18.17
2022-10-12T11:49:47.021Z,18.52
2022-10-12T11:52:14.281Z,18.43
2022-10-12T11:54:49.492Z,18.40
2022-10-12T11:57:26.514Z,18.44
2022-10-12T11:59:59.281Z,18.61
2022-10-12T12:02:32.921Z,18.79
2022-10-12T12:05:00.280Z,19.33
2022-10-12T12:07:48.851Z,19.18
2022-10-12T12:10:37.417Z,18.70
2022-10-12T12:13:18.262Z,18.46
2022-10-12T12:15:47.980Z,18.32
2022-10-12T12:18:17.371Z,18.25
2022-10-12T12:20:44.138Z,18.24
2022-10-12T12:23:29.693Z,18.18
2022-10-12T12:26:16.126Z,18.03
2022-10-12T12:28:48.957Z,17.95
2022-10-12T12:31:26.145Z,17.81
2022-10-12T12:34:15.264Z,18.04
2022-10-12T12:36:47.282Z,18.35
2022-10-12T12:39:33.553Z,18.19
2022-10-12T12:42:02.948Z,18.04
2022-10-12T12:44:40.742Z,17.96
2022-10-12T12:47:32.648Z,17.87
2022-10-12T12:50:33.910Z,17.79
2022-10-12T12:53:15.169Z,17.63
2022-10-12T12:56:05.064Z,17.54
2022-10-12T12:58:40.764Z,17.39
2022-10-12T13:01:27.363Z,17.38
2022-10-12T13:04:25.022Z,17.25
2022-10-12T13:06:51.708Z,17.16
2022-10-12T13:09:25.481Z,17.08
2022-10-12T13:12:14.100Z,17.02
2022-10-12T13:15:13.234Z,16.98
2022-10-12T13:17:49.602Z,16.95
2022-10-12T13:20:19.989Z,16.87
2022-10-12T13:22:47.720Z,16.94
2022-10-12T13:25:40.840Z,17.09
2022-10-12T13:28:12.383Z,17.10
2022-10-12T13:30:55.201Z,17.20
2022-10-12T13:33:35.112Z,17.81
2022-10-12T13:36:29.373Z,18.37
2022-10-12T13:38:57.981Z,18.68
2022-10-12T13:41:26.181Z,18.97
2022-10-12T13:44:04.281Z,19.11
2022-10-12T13:46:48.608Z,19.42
2022-10-12T13:49:19.761Z,19.43
2022-10-12T13:51:50.064Z,19.38
2022-10-12T13:54:22.972Z,19.43
2022-10-12T13:56:53.661Z,19.36
2022-10-12T13:59:22.820Z,19.21
2022-10-12T14:01:50.485Z,19.31
2022-10-12T14:04:17.221Z,19.03
2022-10-12T14:06:47.821Z,19.01
2022-10-12T14:09:21.302Z,19.22
2022-10-12T14:11:48.478Z,19.03
2022-10-12T14:14:35.801Z,18.87
2022-10-12T14:17:02.781Z,18.47
2022-10-12T14:19:56.121Z,18.17
2022-10-12T14:22:31.571Z,18.06
2022-10-12T14:25:18.681Z,17.93
2022-10-12T14:27:45.461Z,17.79
2022-10-12T14:30:21.260Z,17.71
2022-10-12T14:32:48.984Z,17.54
2022-10-12T14:35:18.440Z,17.38
2022-10-12T14:37:46.342Z,17.53
2022-10-12T14:40:26.771Z,17.65
2022-10-12T14:43:12.429Z,17.76
2022-10-12T14:45:39.390Z,17.90
2022-10-12T14:48:14.160Z,17.76
2022-10-12T14:50:40.914Z,17.63
2022-10-12T14:53:11.441Z,17.53
2022-10-12T14:55:38.262Z,17.65
2022-10-12T14:58:11.102Z,17.51
2022-10-12T15:00:38.712Z,17.32
2022-10-12T15:03:05.500Z,17.12
2022-10-12T15:05:34.261Z,16.98
2022-10-12T15:08:01.754Z,16.75
2022-10-12T15:10:29.275Z,16.68
2022-10-12T15:12:55.953Z,16.61
2022-10-12T15:15:43.871Z,16.54
2022-10-12T15:18:10.684Z,16.36
2022-10-12T15:20:37.974Z,16.26
2022-10-12T15:23:05.071Z,16.23
2022-10-12T15:25:34.830Z,16.25
2022-10-12T15:28:02.745Z,16.10
2022-10-12T15:30:29.531Z,16.00
2022-10-12T15:32:56.221Z,15.84
2022-10-12T15:35:35.336Z,15.76
2022-10-12T15:38:02.481Z,15.81
2022-10-12T15:40:30.161Z,15.78
2022-10-12T15:42:57.172Z,15.74
2022-10-12T15:45:26.773Z,15.72
2022-10-12T15:47:54.303Z,15.73
2022-10-12T15:50:24.412Z,15.76
2022-10-12T15:52:51.401Z,15.71
2022-10-12T15:55:24.630Z,15.67
2022-10-12T15:57:51.969Z,15.69
2022-10-12T16:00:20.842Z,15.61
2022-10-12T16:02:47.842Z,15.48
2022-10-12T16:05:21.450Z,15.42
2022-10-12T16:07:48.551Z,15.36
2022-10-12T16:10:16.552Z,15.33
2022-10-12T16:12:45.322Z,15.24
2022-10-12T16:15:14.312Z,15.11
2022-10-12T16:17:41.060Z,14.90
2022-10-12T16:20:09.501Z,14.99
2022-10-12T16:22:36.781Z,14.90
2022-10-12T16:25:05.802Z,14.86
2022-10-12T16:27:32.703Z,14.80
2022-10-12T16:29:59.910Z,14.67
2022-10-12T16:32:27.980Z,14.56
2022-10-12T16:34:54.909Z,14.51
2022-10-12T16:37:21.942Z,14.44
2022-10-12T16:39:48.804Z,14.34
2022-10-12T16:42:15.990Z,14.30
2022-10-12T16:44:42.982Z,14.16
2022-10-12T16:47:10.026Z,14.15
2022-10-12T16:49:36.743Z,14.01
2022-10-12T16:52:04.722Z,14.01
2022-10-12T16:54:31.442Z,14.03
2022-10-12T16:56:58.211Z,13.95
2022-10-12T16:59:25.024Z,13.93
2022-10-12T17:01:52.311Z,13.89
2022-10-12T17:04:21.180Z,13.86
2022-10-12T17:06:48.410Z,13.71
2022-10-12T17:09:15.685Z,13.73
2022-10-12T17:11:42.429Z,13.67
2022-10-12T17:14:12.391Z,13.57
2022-10-12T17:16:48.111Z,13.53
2022-10-12T17:19:18.739Z,13.40
2022-10-12T17:21:46.537Z,13.32
2022-10-12T17:24:14.777Z,13.26
2022-10-12T17:26:42.167Z,13.30
2022-10-12T17:29:11.735Z,13.13
2022-10-12T17:31:38.547Z,13.06
2022-10-12T17:34:07.245Z,13.05
2022-10-12T17:36:35.272Z,13.03
2022-10-12T17:39:02.042Z,12.93
2022-10-12T17:41:29.480Z,12.94
2022-10-12T17:43:56.885Z,12.74
2022-10-12T17:46:23.719Z,12.68
2022-10-12T17:48:51.024Z,12.63
2022-10-12T17:51:18.349Z,12.67
2022-10-12T17:53:45.162Z,12.65
2022-10-12T17:56:13.304Z,12.72
2022-10-12T17:58:40.170Z,12.76
2022-10-12T18:01:15.712Z,12.71
2022-10-12T18:03:44.694Z,12.65
2022-10-12T18:06:15.742Z,12.65
2022-10-12T18:08:43.777Z,12.56
2022-10-12T18:11:10.701Z,12.49
2022-10-12T18:13:37.961Z,12.39
2022-10-12T18:16:09.757Z,12.40
2022-10-12T18:18:37.366Z,12.32
2022-10-12T18:21:08.613Z,12.34
2022-10-12T18:23:35.492Z,12.33
2022-10-12T18:26:10.379Z,12.28
2022-10-12T18:28:37.565Z,12.13
2022-10-12T18:31:05.034Z,12.07
2022-10-12T18:33:32.814Z,11.97
2022-10-12T18:36:04.379Z,11.89
2022-10-12T18:38:31.651Z,11.80
2022-10-12T18:41:11.032Z,11.60
2022-10-12T18:43:38.202Z,11.58
2022-10-12T18:46:10.185Z,11.61
2022-10-12T18:48:37.219Z,11.53
2022-10-12T18:51:20.711Z,11.56
2022-10-12T18:53:48.330Z,11.52
2022-10-12T18:56:15.333Z,11.48
2022-10-12T18:58:42.334Z,11.47
2022-10-12T19:01:14.710Z,11.47
2022-10-12T19:03:41.693Z,11.49
2022-10-12T19:06:19.771Z,11.30
2022-10-12T19:08:48.067Z,11.28
2022-10-12T19:11:17.724Z,11.39
2022-10-12T19:13:45.266Z,11.41
2022-10-12T19:16:17.294Z,11.28
2022-10-12T19:18:44.181Z,11.22
2022-10-12T19:21:13.484Z,11.23
2022-10-12T19:23:41.064Z,11.18
2022-10-12T19:26:10.422Z,11.21
2022-10-12T19:28:37.360Z,11.21
2022-10-12T19:31:16.255Z,11.17
2022-10-12T19:33:43.311Z,11.16
2022-10-12T19:36:11.837Z,11.13
2022-10-12T19:38:40.828Z,11.13
2022-10-12T19:41:08.953Z,11.00
2022-10-12T19:43:38.326Z,11.01
2022-10-12T19:46:10.307Z,10.70
2022-10-12T19:48:38.080Z,10.69
2022-10-12T19:51:07.898Z,10.69
2022-10-12T19:53:35.519Z,10.62
2022-10-12T19:56:14.195Z,10.73
2022-10-12T19:58:44.238Z,10.70
2022-10-12T20:01:15.373Z,10.77
2022-10-12T20:03:47.617Z,10.79
2022-10-12T20:06:15.200Z,10.77
2022-10-12T20:08:43.308Z,10.58
2022-10-12T20:11:15.593Z,10.67
2022-10-12T20:13:45.864Z,10.73
2022-10-12T20:16:13.739Z,10.69
2022-10-12T20:18:40.607Z,10.51
2022-10-12T20:21:09.553Z,10.56
2022-10-12T20:23:37.474Z,10.55
2022-10-12T20:26:13.196Z,10.54
2022-10-12T20:28:40.176Z,10.54
2022-10-12T20:31:07.914Z,10.49
2022-10-12T20:33:36.691Z,10.55
2022-10-12T20:36:04.505Z,10.43
2022-10-12T20:38:31.128Z,10.42
2022-10-12T20:41:05.961Z,10.35
2022-10-12T20:43:32.899Z,10.32
2022-10-12T20:46:06.385Z,10.30
2022-10-12T20:48:33.617Z,10.23
2022-10-12T20:51:00.237Z,10.25
2022-10-12T20:53:26.823Z,10.24
2022-10-12T20:55:53.858Z,10.21
2022-10-12T20:58:24.319Z,10.19
2022-10-12T21:01:14.544Z,10.12
2022-10-12T21:03:42.272Z,10.04
2022-10-12T21:06:11.049Z,10.09
2022-10-12T21:08:38.102Z,10.02
2022-10-12T21:11:05.491Z,10.04
2022-10-12T21:13:33.961Z,10.01
2022-10-12T21:16:00.610Z,9.98
2022-10-12T21:18:27.266Z,9.91
2022-10-12T21:20:58.619Z,9.86
2022-10-12T21:23:25.262Z,9.85
2022-10-12T21:25:52.382Z,9.78
2022-10-12T21:28:19.734Z,9.78
2022-10-12T21:30:46.806Z,9.76
2022-10-12T21:33:14.884Z,9.71
2022-10-12T21:35:41.485Z,9.70
2022-10-12T21:38:08.093Z,9.65
2022-10-12T21:40:34.932Z,9.60
2022-10-12T21:43:01.555Z,9.58
2022-10-12T21:45:28.414Z,9.53
2022-10-12T21:47:55.005Z,9.54
2022-10-12T21:50:21.600Z,9.48
2022-10-12T21:52:49.976Z,9.40
2022-10-12T21:55:16.961Z,9.43
2022-10-12T21:57:43.771Z,9.40
2022-10-12T22:00:11.019Z,9.35
2022-10-12T22:02:37.667Z,9.27
2022-10-12T22:05:04.617Z,9.27
2022-10-12T22:07:31.337Z,9.32
2022-10-12T22:09:57.872Z,9.21
2022-10-12T22:12:24.474Z,9.15
2022-10-12T22:14:51.144Z,9.22
2022-10-12T22:17:17.787Z,9.13
2022-10-12T22:19:44.410Z,9.14
2022-10-12T22:22:11.137Z,9.12
2022-10-12T22:24:37.720Z,9.19
2022-10-12T22:27:04.364Z,9.22
2022-10-12T22:29:30.966Z,9.31
2022-10-12T22:31:57.513Z,9.42
2022-10-12T22:34:24.117Z,9.33
2022-10-12T22:36:50.665Z,9.18
2022-10-12T22:39:17.827Z,9.16
2022-10-12T22:41:44.441Z,9.16
2022-10-12T22:44:10.996Z,9.09
2022-10-12T22:46:37.597Z,9.11
2022-10-12T22:49:04.414Z,9.17
2022-10-12T22:51:36.028Z,9.11
2022-10-12T22:54:03.567Z,8.97
2022-10-12T22:56:30.292Z,9.08
2022-10-12T22:58:59.294Z,9.21
2022-10-12T23:01:26.779Z,9.26
2022-10-12T23:03:54.274Z,9.29
2022-10-12T23:06:21.137Z,9.42
2022-10-12T23:08:48.359Z,9.35
2022-10-12T23:11:18.119Z,9.52
2022-10-12T23:13:45.101Z,9.40
2022-10-12T23:16:14.350Z,9.49
2022-10-12T23:18:41.498Z,9.40
2022-10-12T23:21:12.687Z,9.35
2022-10-12T23:23:39.946Z,9.33
2022-10-12T23:26:15.270Z,9.34
2022-10-12T23:28:42.338Z,9.32
2022-10-12T23:31:11.378Z,9.39
2022-10-12T23:33:38.072Z,9.36
2022-10-12T23:36:07.621Z,9.44
2022-10-12T23:38:36.541Z,9.45
2022-10-12T23:41:03.420Z,9.48
2022-10-12T23:43:30.101Z,9.52
2022-10-12T23:45:57.094Z,9.57
2022-10-12T23:48:24.769Z,9.58
2022-10-12T23:50:54.730Z,9.65
2022-10-12T23:53:22.455Z,9.68
2022-10-12T23:55:49.735Z,9.70
2022-10-12T23:58:16.861Z,9.66
